Aérodrome :
LOGIN :

S'inscrire | Disclaimer

   EN    FR    IT 

 










Légende :    VFR   VFR Marginal   IFR   IFR Intensif   IFR Très Intensif
Visi : 
Plafond : 
>= 8 km
>= 3000ft
5 à 8 km
1000 à 3000 ft
1500m à 5 km
500 à 1000 ft
800 à 1500m
200 à 500 ft
< 800m
< 200 ft
Symboles :   Orages  Brouillard  Fortes neiges  Fortes précipitations  Vent > 20 kt
SIGMETs :   Divers  Orages  Givrage  Turbulence  Onde Orograph.  Cendres Volcan.







- Altitude de l'aérodrome : 392 ft
- Code IATA : CDG
- Voir les cartes d'approche


LFPG - Paris-Aeroport Charles De Gaulle

DERNIER METAR :
  • 301230Z 15016KT 120V180 CAVOK 18/01 Q1002 NOSIG

METARs EXPIRÉS :
  • 301200Z 14015KT 110V170 CAVOK 19/02 Q1002 NOSIG
  • 301130Z 15014KT 120V180 CAVOK 18/01 Q1002 NOSIG
  • 301100Z 15014G25KT 110V180 CAVOK 17/00 Q1003 NOSIG
  • 301030Z 15014KT 120V180 CAVOK 17/01 Q1003 NOSIG
  • 301000Z 15012KT CAVOK 16/01 Q1003 NOSIG
  • 300930Z 14011KT 110V170 CAVOK 15/01 Q1004 NOSIG

TAF TAF LFPG
Valide du 30 à 12h jusqu'au 01 à 18h UTC


301100Z 3012/0118 15014KT CAVOK
BECMG 3012/3014 16015G25KT
PROB40
TEMPO 3017/3019 VRB15G30KT 3500 -TSRA BKN020 BKN030CB
PROB30
TEMPO 3017/3019 2500 -TSGS
PROB40
TEMPO 3017/3023 4000 RA BKN013 BKN025TCU
BECMG 3018/3020 20015G25KT BKN020
PROB40
TEMPO 0103/0109 -SHRA BKN014
TEMPO 0113/0118 -SHRA BKN030TCU
PROB30
TEMPO 0113/0118 4500 SHRA BKN020TCU TX19/3014Z TN07/0105Z
ATIS : +33 1 48 62 10 92
Pas de NOTAMs connus pour ce terrain.



MET'MAP, la Météo Aéronautique d'un coup d'oeil ! - Copyright ORBIFLY Décembre 2007 - Disclaimer

ORBIFLY MET'MAP TEAM :

Programmation & Développement : Alexandra Zaïnal
Conception & Développement : Baudouin d'Aumeries
Co-Programmation & Développement : Marc-Olivier Méhu
Soutien technique & logistique : Manuel Goepfert

Contact : metmap@orbifly.com




SOURCES & CREDITS :

   NOAA